createdAt,value
2023-01-09T08:32:53.689Z,97328.00
2023-01-09T08:48:04.793Z,97336.00
2023-01-09T08:50:32.135Z,97336.00
2023-01-09T08:52:59.633Z,97344.00
2023-01-09T08:55:27.190Z,97338.00
2023-01-09T08:57:55.842Z,97350.00
2023-01-09T09:00:25.285Z,97343.00
2023-01-09T09:03:00.063Z,97348.00
2023-01-09T09:05:31.799Z,97350.00
2023-01-09T09:08:00.200Z,97342.00
2023-01-09T09:10:30.622Z,97348.00
2023-01-09T09:12:59.980Z,97335.00
2023-01-09T09:15:28.730Z,97337.00
2023-01-09T09:18:01.762Z,97334.00
2023-01-09T09:20:38.051Z,97330.00
2023-01-09T09:23:08.237Z,97317.00
2023-01-09T09:25:38.284Z,97320.00
2023-01-09T09:28:07.185Z,97319.00
2023-01-09T09:30:35.455Z,97331.00
2023-01-09T09:33:06.337Z,97335.00
2023-01-09T09:35:35.304Z,97331.00
2023-01-09T09:38:05.735Z,97328.00
2023-01-09T09:41:29.613Z,97338.00
2023-01-09T09:44:48.406Z,97339.00
2023-01-09T09:48:29.418Z,97344.00
2023-01-09T09:51:23.751Z,97346.00
2023-01-09T09:54:04.669Z,97351.00
2023-01-09T09:56:56.614Z,97342.00
2023-01-09T09:59:34.472Z,97353.00
2023-01-09T10:02:30.780Z,97346.00
2023-01-09T10:05:12.382Z,97345.00
2023-01-09T10:07:51.128Z,97348.00
2023-01-09T10:10:44.337Z,97345.00
2023-01-09T10:13:38.067Z,97347.00
2023-01-09T10:16:45.648Z,97342.00
2023-01-09T10:19:55.376Z,97338.00
2023-01-09T10:23:51.246Z,97337.00
2023-01-09T10:26:58.114Z,97325.00
2023-01-09T10:30:19.901Z,97354.00
2023-01-09T10:33:10.515Z,97359.00
2023-01-09T10:36:26.613Z,97369.00
2023-01-09T10:39:01.648Z,97347.00
2023-01-09T10:41:58.977Z,97358.00
2023-01-09T10:44:45.490Z,97370.00
2023-01-09T10:47:37.524Z,97376.00
2023-01-09T10:50:39.934Z,97369.00
2023-01-09T10:53:39.692Z,97366.00
2023-01-09T10:56:36.960Z,97366.00
2023-01-09T10:59:04.451Z,97370.00
2023-01-09T11:01:40.167Z,97361.00
2023-01-09T11:04:37.624Z,97355.00
2023-01-09T11:07:26.211Z,97342.00
2023-01-09T11:10:08.212Z,97346.00
2023-01-09T11:12:37.986Z,97350.00
2023-01-09T11:15:19.548Z,97365.00
2023-01-09T11:17:50.371Z,97371.00
2023-01-09T11:20:30.072Z,97368.00
2023-01-09T11:22:59.209Z,97376.00
2023-01-09T11:25:29.082Z,97387.00
2023-01-09T11:28:06.774Z,97365.00
2023-01-09T11:31:02.261Z,97385.00
2023-01-09T11:33:37.989Z,97368.00
2023-01-09T11:36:15.663Z,97355.00
2023-01-09T11:39:00.921Z,97383.00
2023-01-09T11:41:35.790Z,97389.00
2023-01-09T11:44:05.325Z,97395.00
2023-01-09T11:46:44.006Z,97377.00
2023-01-09T11:49:31.599Z,97408.00
2023-01-09T11:52:22.175Z,97390.00
2023-01-09T11:55:05.527Z,97412.00
2023-01-09T11:57:34.579Z,97396.00
2023-01-09T12:00:35.619Z,97379.00
2023-01-09T12:03:58.587Z,97370.00
2023-01-09T12:07:30.427Z,97396.00
2023-01-09T12:11:09.306Z,97379.00
2023-01-09T12:14:13.178Z,97382.00
2023-01-09T12:17:10.565Z,97384.00
2023-01-09T12:20:55.802Z,97375.00
2023-01-09T12:24:02.403Z,97370.00
2023-01-09T12:26:50.517Z,97368.00
2023-01-09T12:29:40.719Z,97371.00
2023-01-09T12:32:47.839Z,97360.00
2023-01-09T12:35:57.658Z,97388.00
2023-01-09T12:38:46.183Z,97386.00
2023-01-09T12:41:37.244Z,97406.00
2023-01-09T12:45:13.754Z,97397.00
2023-01-09T12:47:48.788Z,97402.00
2023-01-09T12:50:38.182Z,97394.00
2023-01-09T12:53:30.826Z,97391.00
2023-01-09T12:56:20.121Z,97380.00
2023-01-09T12:59:10.177Z,97383.00
2023-01-09T13:01:46.618Z,97375.00
2023-01-09T13:04:30.835Z,97379.00
2023-01-09T13:07:20.482Z,97370.00
2023-01-09T13:10:02.331Z,97376.00
2023-01-09T13:12:39.195Z,97375.00
2023-01-09T13:15:41.355Z,97376.00
2023-01-09T13:19:11.115Z,97375.00
2023-01-09T13:21:40.225Z,97369.00
2023-01-09T13:24:35.563Z,97384.00
2023-01-09T13:27:16.439Z,97364.00
2023-01-09T13:29:51.959Z,97377.00
2023-01-09T13:32:58.404Z,97374.00
2023-01-09T13:35:26.081Z,97376.00
2023-01-09T13:37:54.395Z,97366.00
2023-01-09T13:40:21.813Z,97369.00
2023-01-09T13:43:05.393Z,97379.00
2023-01-09T13:45:38.132Z,97379.00
2023-01-09T13:48:11.959Z,97394.00
2023-01-09T13:50:41.306Z,97396.00
2023-01-09T13:53:25.048Z,97405.00
2023-01-09T13:55:58.895Z,97397.00
2023-01-09T13:59:02.552Z,97412.00
2023-01-09T14:01:39.773Z,97410.00
2023-01-09T14:04:14.870Z,97418.00
2023-01-09T14:06:44.954Z,97416.00
2023-01-09T14:09:23.495Z,97437.00
2023-01-09T14:12:06.128Z,97470.00
2023-01-09T14:14:34.949Z,97460.00
2023-01-09T14:17:03.475Z,97474.00
2023-01-09T14:19:39.888Z,97468.00
2023-01-09T14:22:23.339Z,97482.00
2023-01-09T14:24:52.958Z,97497.00
2023-01-09T14:27:54.305Z,97501.00
2023-01-09T14:30:47.076Z,97531.00
2023-01-09T14:33:20.549Z,97539.00
2023-01-09T14:36:22.098Z,97528.00
2023-01-09T14:39:04.048Z,97540.00
2023-01-09T14:42:05.651Z,97543.00
2023-01-09T14:45:19.384Z,97537.00
2023-01-09T14:48:05.553Z,97539.00
2023-01-09T14:50:55.404Z,97544.00
2023-01-09T14:53:37.058Z,97546.00
2023-01-09T14:56:08.396Z,97546.00
2023-01-09T14:58:38.721Z,97549.00
2023-01-09T15:01:22.976Z,97556.00
2023-01-09T15:04:01.773Z,97560.00
2023-01-09T15:06:41.702Z,97574.00
2023-01-09T15:09:33.615Z,97583.00
2023-01-09T15:12:09.431Z,97594.00
2023-01-09T15:14:43.268Z,97607.00
2023-01-09T15:17:33.953Z,97611.00
2023-01-09T15:20:05.439Z,97609.00
2023-01-09T15:22:37.840Z,97621.00
2023-01-09T15:25:39.358Z,97619.00
2023-01-09T15:28:33.117Z,97622.00
2023-01-09T15:31:16.719Z,97616.00
2023-01-09T15:33:47.997Z,97623.00
2023-01-09T15:36:30.305Z,97622.00
2023-01-09T15:38:58.308Z,97632.00
2023-01-09T15:41:49.204Z,97638.00
2023-01-09T15:44:30.228Z,97638.00
2023-01-09T15:47:00.230Z,97634.00
2023-01-09T15:49:27.915Z,97646.00
2023-01-09T15:51:55.956Z,97649.00
2023-01-09T15:54:32.505Z,97643.00
2023-01-09T15:57:25.945Z,97650.00
2023-01-09T15:59:56.334Z,97653.00
2023-01-09T16:02:44.272Z,97652.00
2023-01-09T16:05:17.846Z,97661.00
2023-01-09T16:07:51.799Z,97666.00
2023-01-09T16:10:35.479Z,97673.00
2023-01-09T16:13:03.555Z,97678.00
2023-01-09T16:15:34.930Z,97682.00
2023-01-09T16:18:39.060Z,97700.00
2023-01-09T16:21:12.491Z,97702.00
2023-01-09T16:23:50.464Z,97712.00
2023-01-09T16:26:25.415Z,97720.00
2023-01-09T16:28:53.811Z,97721.00
2023-01-09T16:31:29.800Z,97717.00
2023-01-09T16:34:07.207Z,97728.00
2023-01-09T16:36:36.372Z,97723.00
2023-01-09T16:39:04.644Z,97726.00
2023-01-09T16:41:50.580Z,97730.00
2023-01-09T16:44:19.323Z,97727.00
2023-01-09T16:46:46.903Z,97716.00
2023-01-09T16:49:23.361Z,97753.00
2023-01-09T16:51:51.760Z,97760.00
2023-01-09T16:54:20.237Z,97761.00
2023-01-09T16:56:52.902Z,97762.00
2023-01-09T16:59:27.777Z,97771.00
2023-01-09T17:01:55.592Z,97760.00
2023-01-09T17:04:26.106Z,97773.00
2023-01-09T17:06:53.441Z,97775.00
2023-01-09T17:09:27.646Z,97786.00
2023-01-09T17:11:55.141Z,97784.00
2023-01-09T17:14:22.452Z,97798.00
2023-01-09T17:16:49.978Z,97787.00
2023-01-09T17:19:23.563Z,97798.00
2023-01-09T17:21:50.879Z,97801.00
2023-01-09T17:24:37.154Z,97808.00
2023-01-09T17:27:23.138Z,97808.00
2023-01-09T17:29:50.510Z,97813.00
2023-01-09T17:32:19.552Z,97812.00
